Anwaar Alnaser — 5AXD — position and weather

sailwx.info

Track history (hours):
 
Tides and Currents Weather Stations Pressure Air Temp Water Temp Dewpoint Dewpoint Depression Visibility Wind Speed Wind Dir Waves Ship Positions

Anwaar Alnaser

Last reported at 2018-Feb-13 19:41 UTC. Time now 2018-Feb-25 14:10 UTC.
Position N 37°40' E 023°43'.
Warning: this ship's position is 11 days out of date.

Length 165 m; draft 8 m.

Type: Ship. MMSI: 642122018.

Date/timePositionNaut miles runAvg speedWind from/ knotsBaromVisibWave heightAir tempDewpointWater temp
2018-Feb-13 19:41N 37°40' E 023°43'2 9.4
2018-Feb-13 19:30N 37°41' E 023°42'5 9.9
2018-Feb-13 19:00N 37°46' E 023°39'612.5
2018-Feb-13 18:30N 37°51' E 023°35'3 4.9
2018-Feb-13 17:58N 37°53' E 023°33'0 0.0
2018-Feb-13 17:28N 37°53' E 023°33'0 0.0
2018-Feb-13 16:58N 37°53' E 023°33'0 0.1
2018-Feb-13 16:28N 37°53' E 023°33'0 0.0
2018-Feb-13 15:58N 37°53' E 023°33'0 0.0
2018-Feb-13 15:28N 37°53' E 023°33'0 0.0
2018-Feb-13 14:58N 37°53' E 023°33'0 0.0
2018-Feb-13 14:28N 37°53' E 023°33'0 0.0
2018-Feb-13 13:58N 37°53' E 023°33'0 0.0
2018-Feb-13 13:28N 37°53' E 023°33'0 0.0
2018-Feb-13 12:58N 37°53' E 023°33'0 0.0
2018-Feb-13 12:28N 37°53' E 023°33'0 0.0
2018-Feb-13 12:01N 37°53' E 023°33'0 0.0
2018-Feb-13 11:31N 37°53' E 023°33'0 0.1
2018-Feb-13 11:01N 37°53' E 023°33'0 0.1
2018-Feb-13 10:30N 37°53' E 023°33'0 0.0
2018-Feb-13 10:00N 37°53' E 023°33'0 0.1
2018-Feb-13 09:30N 37°53' E 023°33'0 0.1
2018-Feb-13 09:00N 37°53' E 023°33'0 0.0
2018-Feb-13 08:30N 37°53' E 023°33'0 0.0
2018-Feb-13 08:00N 37°53' E 023°33'0 0.1
2018-Feb-13 07:30N 37°53' E 023°33'0 0.2
2018-Feb-13 07:00N 37°53' E 023°33'0 0.1
2018-Feb-13 06:30N 37°53' E 023°33'0 0.0
2018-Feb-13 06:00N 37°53' E 023°33'0 0.0
2018-Feb-13 05:30N 37°53' E 023°33'0 0.1
2018-Feb-13 05:00N 37°53' E 023°33'0 0.1
2018-Feb-13 04:30N 37°53' E 023°33'0 0.0
2018-Feb-13 04:00N 37°53' E 023°33'0 0.0
2018-Feb-13 03:30N 37°53' E 023°33'0 0.0
2018-Feb-13 03:00N 37°53' E 023°33'0 0.0
2018-Feb-13 02:30N 37°53' E 023°33'0 0.0
2018-Feb-13 02:00N 37°53' E 023°33'0 0.0
2018-Feb-13 01:30N 37°53' E 023°33'0 0.0
2018-Feb-13 01:00N 37°53' E 023°33'0 0.1
2018-Feb-13 00:30N 37°53' E 023°33'0 0.1
2018-Feb-13 00:00N 37°53' E 023°33'0 0.1
2018-Feb-12 23:30N 37°53' E 023°33'0 0.0
2018-Feb-12 23:00N 37°53' E 023°33'0 0.1
2018-Feb-12 22:30N 37°53' E 023°33'0 0.0
2018-Feb-12 22:00N 37°53' E 023°33'0 0.0
2018-Feb-12 21:30N 37°53' E 023°33'0 0.0
2018-Feb-12 21:00N 37°53' E 023°33'0 0.0
2018-Feb-12 20:30N 37°53' E 023°33'0 0.0
2018-Feb-12 20:00N 37°53' E 023°33'0 0.1
2018-Feb-12 19:30N 37°53' E 023°33'0 0.0
2018-Feb-12 19:00N 37°53' E 023°33'0 0.2
2018-Feb-12 18:30N 37°53' E 023°33'0 0.2
2018-Feb-12 18:00N 37°53' E 023°33'0 0.1
2018-Feb-12 17:30N 37°53' E 023°33'0 0.0
2018-Feb-12 17:00N 37°53' E 023°33'0 0.1
2018-Feb-12 16:30N 37°53' E 023°33'0 0.1
2018-Feb-12 16:00N 37°53' E 023°33'0 0.1
2018-Feb-12 15:30N 37°53' E 023°33'0 0.1
2018-Feb-12 15:00N 37°53' E 023°33'0 0.2
2018-Feb-12 14:30N 37°53' E 023°33'0 0.1
2018-Feb-12 14:00N 37°53' E 023°33'0 0.0
2018-Feb-12 13:30N 37°53' E 023°33'0 0.1
2018-Feb-12 13:00N 37°53' E 023°33'0 0.0
2018-Feb-12 12:30N 37°53' E 023°33'0 0.0
2018-Feb-12 12:00N 37°53' E 023°33'0 0.1
2018-Feb-12 11:30N 37°53' E 023°33'0 0.1
2018-Feb-12 11:00N 37°53' E 023°33'0 0.0
2018-Feb-12 10:30N 37°53' E 023°33'0 0.0
2018-Feb-12 10:00N 37°53' E 023°33'0 0.0
2018-Feb-12 09:30N 37°53' E 023°33'0 0.0
2018-Feb-12 09:00N 37°53' E 023°33'0 0.0
2018-Feb-12 08:30N 37°53' E 023°33'0 0.0
2018-Feb-12 08:00N 37°53' E 023°33'0 0.0
2018-Feb-12 07:30N 37°53' E 023°33'0 0.0
2018-Feb-12 07:00N 37°53' E 023°33'0 0.3
2018-Feb-12 06:30N 37°53' E 023°33'2 3.3
2018-Feb-12 06:01N 37°53' E 023°35'4 7.7
2018-Feb-12 05:31N 37°51' E 023°39'5 9.6
2018-Feb-12 05:00N 37°46' E 023°42'  
Track history (hours):
 
Tides and Currents Weather Stations Pressure Air Temp Water Temp Dewpoint Dewpoint Depression Visibility Wind Speed Wind Dir Waves Ship Positions

Anwaar Alnaser

Last reported at 2018-Feb-13 19:41 UTC. Time now 2018-Feb-25 14:10 UTC.
Position N 37°40' E 023°43'.
Warning: this ship's position is 11 days out of date.

Length 165 m; draft 8 m.

Type: Ship. MMSI: 642122018.

Date/timePositionNaut miles runAvg speedWind from/ knotsBaromVisibWave heightAir tempDewpointWater temp
2018-Feb-13 19:41N 37°40' E 023°43'2 9.4
2018-Feb-13 19:30N 37°41' E 023°42'5 9.9
2018-Feb-13 19:00N 37°46' E 023°39'612.5
2018-Feb-13 18:30N 37°51' E 023°35'3 4.9
2018-Feb-13 17:58N 37°53' E 023°33'0 0.0
2018-Feb-13 17:28N 37°53' E 023°33'0 0.0
2018-Feb-13 16:58N 37°53' E 023°33'0 0.1
2018-Feb-13 16:28N 37°53' E 023°33'0 0.0
2018-Feb-13 15:58N 37°53' E 023°33'0 0.0
2018-Feb-13 15:28N 37°53' E 023°33'0 0.0
2018-Feb-13 14:58N 37°53' E 023°33'0 0.0
2018-Feb-13 14:28N 37°53' E 023°33'0 0.0
2018-Feb-13 13:58N 37°53' E 023°33'0 0.0
2018-Feb-13 13:28N 37°53' E 023°33'0 0.0
2018-Feb-13 12:58N 37°53' E 023°33'0 0.0
2018-Feb-13 12:28N 37°53' E 023°33'0 0.0
2018-Feb-13 12:01N 37°53' E 023°33'0 0.0
2018-Feb-13 11:31N 37°53' E 023°33'0 0.1
2018-Feb-13 11:01N 37°53' E 023°33'0 0.1
2018-Feb-13 10:30N 37°53' E 023°33'0 0.0
2018-Feb-13 10:00N 37°53' E 023°33'0 0.1
2018-Feb-13 09:30N 37°53' E 023°33'0 0.1
2018-Feb-13 09:00N 37°53' E 023°33'0 0.0
2018-Feb-13 08:30N 37°53' E 023°33'0 0.0
2018-Feb-13 08:00N 37°53' E 023°33'0 0.1
2018-Feb-13 07:30N 37°53' E 023°33'0 0.2
2018-Feb-13 07:00N 37°53' E 023°33'0 0.1
2018-Feb-13 06:30N 37°53' E 023°33'0 0.0
2018-Feb-13 06:00N 37°53' E 023°33'0 0.0
2018-Feb-13 05:30N 37°53' E 023°33'0 0.1
2018-Feb-13 05:00N 37°53' E 023°33'0 0.1
2018-Feb-13 04:30N 37°53' E 023°33'0 0.0
2018-Feb-13 04:00N 37°53' E 023°33'0 0.0
2018-Feb-13 03:30N 37°53' E 023°33'0 0.0
2018-Feb-13 03:00N 37°53' E 023°33'0 0.0
2018-Feb-13 02:30N 37°53' E 023°33'0 0.0
2018-Feb-13 02:00N 37°53' E 023°33'0 0.0
2018-Feb-13 01:30N 37°53' E 023°33'0 0.0
2018-Feb-13 01:00N 37°53' E 023°33'0 0.1
2018-Feb-13 00:30N 37°53' E 023°33'0 0.1
2018-Feb-13 00:00N 37°53' E 023°33'0 0.1
2018-Feb-12 23:30N 37°53' E 023°33'0 0.0
2018-Feb-12 23:00N 37°53' E 023°33'0 0.1
2018-Feb-12 22:30N 37°53' E 023°33'0 0.0
2018-Feb-12 22:00N 37°53' E 023°33'0 0.0
2018-Feb-12 21:30N 37°53' E 023°33'0 0.0
2018-Feb-12 21:00N 37°53' E 023°33'0 0.0
2018-Feb-12 20:30N 37°53' E 023°33'0 0.0
2018-Feb-12 20:00N 37°53' E 023°33'0 0.1
2018-Feb-12 19:30N 37°53' E 023°33'0 0.0
2018-Feb-12 19:00N 37°53' E 023°33'0 0.2
2018-Feb-12 18:30N 37°53' E 023°33'0 0.2
2018-Feb-12 18:00N 37°53' E 023°33'0 0.1
2018-Feb-12 17:30N 37°53' E 023°33'0 0.0
2018-Feb-12 17:00N 37°53' E 023°33'0 0.1
2018-Feb-12 16:30N 37°53' E 023°33'0 0.1
2018-Feb-12 16:00N 37°53' E 023°33'0 0.1
2018-Feb-12 15:30N 37°53' E 023°33'0 0.1
2018-Feb-12 15:00N 37°53' E 023°33'0 0.2
2018-Feb-12 14:30N 37°53' E 023°33'0 0.1
2018-Feb-12 14:00N 37°53' E 023°33'0 0.0
2018-Feb-12 13:30N 37°53' E 023°33'0 0.1
2018-Feb-12 13:00N 37°53' E 023°33'0 0.0
2018-Feb-12 12:30N 37°53' E 023°33'0 0.0
2018-Feb-12 12:00N 37°53' E 023°33'0 0.1
2018-Feb-12 11:30N 37°53' E 023°33'0 0.1
2018-Feb-12 11:00N 37°53' E 023°33'0 0.0
2018-Feb-12 10:30N 37°53' E 023°33'0 0.0
2018-Feb-12 10:00N 37°53' E 023°33'0 0.0
2018-Feb-12 09:30N 37°53' E 023°33'0 0.0
2018-Feb-12 09:00N 37°53' E 023°33'0 0.0
2018-Feb-12 08:30N 37°53' E 023°33'0 0.0
2018-Feb-12 08:00N 37°53' E 023°33'0 0.0
2018-Feb-12 07:30N 37°53' E 023°33'0 0.0
2018-Feb-12 07:00N 37°53' E 023°33'0 0.3
2018-Feb-12 06:30N 37°53' E 023°33'2 3.3
2018-Feb-12 06:01N 37°53' E 023°35'4 7.7
2018-Feb-12 05:31N 37°51' E 023°39'5 9.6
2018-Feb-12 05:00N 37°46' E 023°42'  

Dump ship's entire track history